createdAt,value
2022-09-29T00:00:51.586Z,76.10
2022-09-29T00:03:19.599Z,76.10
2022-09-29T00:05:51.759Z,75.70
2022-09-29T00:08:20.494Z,75.60
2022-09-29T00:10:47.940Z,75.60
2022-09-29T00:13:16.186Z,75.70
2022-09-29T00:15:43.489Z,76.00
2022-09-29T00:18:14.252Z,76.00
2022-09-29T00:20:41.945Z,76.00
2022-09-29T00:23:09.016Z,76.10
2022-09-29T00:25:36.118Z,76.20
2022-09-29T00:28:03.276Z,76.40
2022-09-29T00:30:30.296Z,76.30
2022-09-29T00:32:57.337Z,76.20
2022-09-29T00:35:24.360Z,76.40
2022-09-29T00:37:51.441Z,76.30
2022-09-29T00:40:18.768Z,76.20
2022-09-29T00:42:45.812Z,76.20
2022-09-29T00:45:20.666Z,76.80
2022-09-29T00:48:11.560Z,77.00
2022-09-29T00:50:45.245Z,76.70
2022-09-29T00:53:17.844Z,76.60
2022-09-29T00:55:51.786Z,76.60
2022-09-29T00:58:40.810Z,76.70
2022-09-29T01:01:08.707Z,76.60
2022-09-29T01:03:40.797Z,76.60
2022-09-29T01:06:26.341Z,76.60
2022-09-29T01:09:06.585Z,76.40
2022-09-29T01:11:34.220Z,76.30
2022-09-29T01:14:05.020Z,76.30
2022-09-29T01:16:33.567Z,76.30
2022-09-29T01:19:04.169Z,76.10
2022-09-29T01:21:44.149Z,76.00
2022-09-29T01:24:40.189Z,75.80
2022-09-29T01:27:33.413Z,75.70
2022-09-29T01:30:21.362Z,75.60
2022-09-29T01:33:06.214Z,75.60
2022-09-29T01:35:57.129Z,75.40
2022-09-29T01:38:39.490Z,75.30
2022-09-29T01:41:10.649Z,75.20
2022-09-29T01:43:55.886Z,75.00
2022-09-29T01:46:27.194Z,75.00
2022-09-29T01:48:56.867Z,74.80
2022-09-29T01:51:32.010Z,74.70
2022-09-29T01:54:04.687Z,74.80
2022-09-29T01:56:40.041Z,74.50
2022-09-29T01:59:20.611Z,74.40
2022-09-29T02:01:50.186Z,74.40
2022-09-29T02:04:24.218Z,74.40
2022-09-29T02:07:00.675Z,74.60
2022-09-29T02:09:37.558Z,74.50
2022-09-29T02:12:07.106Z,74.50
2022-09-29T02:14:42.595Z,74.50
2022-09-29T02:17:19.667Z,74.50
2022-09-29T02:19:50.911Z,74.60
2022-09-29T02:22:19.450Z,74.50
2022-09-29T02:24:47.040Z,74.40
2022-09-29T02:27:14.312Z,74.30
2022-09-29T02:29:42.008Z,74.40
2022-09-29T02:32:10.148Z,74.30
2022-09-29T02:34:43.503Z,74.20
2022-09-29T02:37:18.815Z,74.30
2022-09-29T02:40:29.543Z,74.20
2022-09-29T02:43:33.887Z,74.20
2022-09-29T02:46:37.887Z,74.20
2022-09-29T02:49:13.861Z,74.40
2022-09-29T02:52:11.433Z,74.20
2022-09-29T02:54:47.883Z,74.30
2022-09-29T02:57:26.203Z,74.30
2022-09-29T03:00:06.772Z,74.30
2022-09-29T03:02:33.852Z,74.30
2022-09-29T03:05:01.331Z,74.20
2022-09-29T03:07:28.380Z,74.10
2022-09-29T03:09:55.410Z,74.00
2022-09-29T03:12:22.476Z,73.90
2022-09-29T03:14:49.544Z,73.90
2022-09-29T03:17:16.577Z,73.70
2022-09-29T03:19:43.649Z,73.80
2022-09-29T03:22:10.712Z,73.80
2022-09-29T03:24:37.793Z,73.70
2022-09-29T03:27:04.885Z,74.20
2022-09-29T03:29:32.244Z,74.40
2022-09-29T03:32:00.229Z,74.30
2022-09-29T03:34:27.424Z,74.40
2022-09-29T03:36:54.721Z,74.40
2022-09-29T03:39:21.740Z,74.50
2022-09-29T03:41:48.929Z,74.50
2022-09-29T03:44:16.169Z,74.70
2022-09-29T03:46:43.549Z,75.00
2022-09-29T03:49:11.361Z,75.30
2022-09-29T03:51:38.858Z,74.60
2022-09-29T03:54:06.681Z,74.50
2022-09-29T03:56:34.162Z,74.70
2022-09-29T03:59:01.357Z,74.70
2022-09-29T04:01:28.393Z,74.70
2022-09-29T04:03:55.410Z,75.10
2022-09-29T04:06:22.538Z,76.00
2022-09-29T04:08:50.086Z,75.70
2022-09-29T04:11:17.193Z,75.60
2022-09-29T04:13:44.262Z,75.60
2022-09-29T04:16:11.485Z,75.70
2022-09-29T04:18:38.684Z,75.70
2022-09-29T04:21:08.790Z,75.60
2022-09-29T04:23:36.542Z,75.50
2022-09-29T04:26:04.277Z,75.50
2022-09-29T04:28:33.009Z,75.90
2022-09-29T04:31:00.070Z,75.70
2022-09-29T04:33:29.828Z,75.60
2022-09-29T04:35:58.874Z,75.60
2022-09-29T04:38:26.154Z,75.70
2022-09-29T04:40:53.337Z,75.50
2022-09-29T04:43:20.406Z,75.30
2022-09-29T04:45:47.520Z,75.40
2022-09-29T04:48:14.802Z,75.50
2022-09-29T04:50:43.094Z,75.50
2022-09-29T04:53:11.111Z,75.50
2022-09-29T04:55:39.098Z,75.50
2022-09-29T04:58:06.602Z,76.00
2022-09-29T05:00:35.157Z,75.80
2022-09-29T05:03:03.408Z,75.60
2022-09-29T05:05:30.459Z,75.50
2022-09-29T05:07:59.386Z,75.40
2022-09-29T05:10:26.918Z,75.40
2022-09-29T05:12:54.055Z,75.30
2022-09-29T05:15:25.832Z,75.30
2022-09-29T05:17:53.275Z,75.20
2022-09-29T05:20:20.428Z,75.20
2022-09-29T05:22:47.467Z,75.20
2022-09-29T05:25:14.631Z,75.20
2022-09-29T05:27:41.639Z,75.20
2022-09-29T05:30:09.102Z,75.10
2022-09-29T05:32:36.287Z,75.00
2022-09-29T05:35:04.038Z,75.10
2022-09-29T05:37:31.128Z,75.20
2022-09-29T05:39:58.163Z,75.30
2022-09-29T05:42:25.828Z,75.20
2022-09-29T05:44:53.175Z,75.10
2022-09-29T05:47:20.752Z,75.00
2022-09-29T05:49:47.795Z,74.80
2022-09-29T05:52:14.899Z,75.60
2022-09-29T05:54:41.924Z,75.00
2022-09-29T05:57:08.988Z,75.00
2022-09-29T05:59:36.084Z,75.10
2022-09-29T06:02:03.238Z,75.20
2022-09-29T06:04:30.297Z,75.30
2022-09-29T06:06:57.349Z,75.30
2022-09-29T06:09:24.480Z,75.20
2022-09-29T06:11:51.505Z,75.20
2022-09-29T06:14:18.677Z,75.00
2022-09-29T06:16:45.952Z,74.90
2022-09-29T06:19:13.823Z,75.00
2022-09-29T06:21:40.925Z,75.00
2022-09-29T06:24:08.177Z,75.10
2022-09-29T06:26:35.535Z,75.30
2022-09-29T06:29:03.337Z,75.20
2022-09-29T06:31:31.835Z,75.30
2022-09-29T06:34:01.745Z,75.30
2022-09-29T06:36:58.321Z,75.40
2022-09-29T06:39:25.562Z,75.30
2022-09-29T06:41:54.371Z,75.20
2022-09-29T06:44:24.339Z,75.20
2022-09-29T06:46:51.904Z,75.30
2022-09-29T06:49:20.080Z,75.40
2022-09-29T06:51:47.502Z,76.30
2022-09-29T06:54:16.696Z,75.50
2022-09-29T06:56:48.203Z,74.80
2022-09-29T06:59:15.743Z,74.30
2022-09-29T07:01:42.993Z,74.30
2022-09-29T07:04:10.107Z,74.70
2022-09-29T07:06:37.166Z,75.60
2022-09-29T07:09:04.285Z,75.00
2022-09-29T07:11:31.477Z,75.30
2022-09-29T07:13:58.526Z,75.40
2022-09-29T07:16:25.763Z,75.80
2022-09-29T07:18:53.330Z,75.90
2022-09-29T07:21:21.943Z,75.90
2022-09-29T07:23:49.646Z,75.90
2022-09-29T07:26:17.186Z,75.80
2022-09-29T07:28:45.794Z,75.70
2022-09-29T07:31:16.231Z,75.70
2022-09-29T07:33:48.239Z,75.90
2022-09-29T07:36:17.802Z,76.00
2022-09-29T07:38:49.896Z,76.10
2022-09-29T07:41:21.794Z,76.20
2022-09-29T07:43:48.927Z,76.20
2022-09-29T07:46:16.515Z,76.40
2022-09-29T07:48:43.723Z,76.60
2022-09-29T07:51:19.574Z,76.50
2022-09-29T07:53:47.395Z,76.50
2022-09-29T07:56:18.283Z,76.70
2022-09-29T07:58:49.987Z,76.80
2022-09-29T08:01:18.679Z,76.80
2022-09-29T08:03:54.277Z,76.70
2022-09-29T08:06:23.011Z,76.80
2022-09-29T08:09:02.684Z,76.90
2022-09-29T08:11:33.136Z,76.90
2022-09-29T08:14:01.529Z,76.90
2022-09-29T08:16:29.048Z,76.80
2022-09-29T08:18:56.215Z,76.80
2022-09-29T08:21:23.283Z,76.80
2022-09-29T08:23:50.401Z,76.90
2022-09-29T08:26:25.352Z,76.60
2022-09-29T08:29:06.640Z,76.60
2022-09-29T08:31:37.175Z,76.60
2022-09-29T08:34:04.325Z,76.70
2022-09-29T08:36:31.708Z,76.80
2022-09-29T08:38:59.028Z,77.00
2022-09-29T08:41:50.020Z,77.00
2022-09-29T08:44:38.727Z,77.20
2022-09-29T08:47:45.271Z,77.30
2022-09-29T08:50:27.329Z,77.40
2022-09-29T08:53:26.208Z,77.40
2022-09-29T08:56:04.508Z,77.30
2022-09-29T08:58:32.955Z,77.30
2022-09-29T09:01:25.712Z,77.10
2022-09-29T09:04:19.276Z,77.10
2022-09-29T09:07:00.721Z,77.00
2022-09-29T09:10:03.028Z,77.00
2022-09-29T09:12:48.868Z,76.80
2022-09-29T09:15:43.994Z,76.90
2022-09-29T09:18:36.293Z,77.30
2022-09-29T09:21:19.560Z,77.20
2022-09-29T09:23:55.478Z,77.30
2022-09-29T09:26:46.554Z,77.10
2022-09-29T09:29:16.954Z,77.20
2022-09-29T09:31:51.073Z,77.20
2022-09-29T09:34:37.510Z,77.30
2022-09-29T09:37:31.746Z,77.40
2022-09-29T09:40:32.086Z,77.40
2022-09-29T09:43:10.869Z,77.40
2022-09-29T09:45:50.133Z,77.80
2022-09-29T09:48:30.787Z,77.90
2022-09-29T09:51:17.875Z,77.80
2022-09-29T09:53:48.546Z,77.70
2022-09-29T09:56:43.375Z,77.80
2022-09-29T09:59:48.062Z,77.80
2022-09-29T10:02:21.897Z,77.60
2022-09-29T10:04:54.323Z,77.30
2022-09-29T10:07:24.059Z,77.20
2022-09-29T10:09:51.674Z,77.30
2022-09-29T10:12:21.591Z,76.90
2022-09-29T10:14:59.411Z,75.70
2022-09-29T10:17:31.545Z,74.70
2022-09-29T10:20:05.510Z,74.40
2022-09-29T10:22:33.947Z,73.80
2022-09-29T10:25:13.890Z,73.30
2022-09-29T10:27:44.071Z,73.60
2022-09-29T10:30:24.551Z,74.00
2022-09-29T10:32:58.491Z,74.00
2022-09-29T10:35:46.999Z,73.90
2022-09-29T10:38:26.215Z,73.80
2022-09-29T10:41:06.255Z,73.50
2022-09-29T10:43:39.438Z,72.70
2022-09-29T10:46:39.789Z,72.70
2022-09-29T10:49:10.911Z,72.60
2022-09-29T10:51:38.976Z,72.90
2022-09-29T10:54:11.249Z,71.70
2022-09-29T10:56:48.703Z,71.90
2022-09-29T10:59:17.170Z,70.90
2022-09-29T11:01:50.681Z,71.60
2022-09-29T11:04:27.658Z,71.20
2022-09-29T11:06:55.095Z,71.40
2022-09-29T11:09:22.309Z,71.50
2022-09-29T11:11:49.476Z,72.40
2022-09-29T11:14:41.674Z,72.30
2022-09-29T11:17:32.017Z,71.10
2022-09-29T11:20:02.319Z,71.00
2022-09-29T11:22:50.554Z,70.20
2022-09-29T11:25:36.176Z,71.70
2022-09-29T11:28:13.069Z,70.50
2022-09-29T11:30:53.089Z,70.40
2022-09-29T11:33:28.298Z,71.10
2022-09-29T11:36:22.260Z,71.00
2022-09-29T11:39:01.249Z,70.90
2022-09-29T11:41:50.625Z,72.00
2022-09-29T11:44:49.363Z,71.30
2022-09-29T11:47:49.617Z,71.30
2022-09-29T11:50:42.618Z,71.30
2022-09-29T11:53:40.365Z,71.00
2022-09-29T11:56:22.827Z,70.60
2022-09-29T11:59:19.045Z,70.80
2022-09-29T12:02:08.165Z,71.70
2022-09-29T12:05:05.299Z,72.10
2022-09-29T12:07:45.132Z,72.60
2022-09-29T12:10:37.138Z,72.60
2022-09-29T12:13:13.401Z,72.80
2022-09-29T12:16:11.445Z,73.10
2022-09-29T12:18:51.937Z,73.40
2022-09-29T12:21:37.635Z,73.80
2022-09-29T12:24:11.638Z,74.00
2022-09-29T12:26:39.750Z,74.30
2022-09-29T12:29:44.802Z,74.40
2022-09-29T12:32:24.790Z,74.50
2022-09-29T12:34:56.031Z,74.90
2022-09-29T12:37:43.314Z,74.80
2022-09-29T12:40:15.699Z,75.20
2022-09-29T12:43:03.939Z,75.50
2022-09-29T12:45:49.960Z,75.20
2022-09-29T12:48:46.082Z,75.40
2022-09-29T12:51:20.427Z,75.60
2022-09-29T12:54:05.561Z,75.70
2022-09-29T12:56:40.951Z,75.70
2022-09-29T12:59:14.402Z,76.00
2022-09-29T13:01:41.803Z,76.00
2022-09-29T13:04:25.771Z,75.80
2022-09-29T13:07:16.960Z,75.90
2022-09-29T13:09:55.751Z,76.00
2022-09-29T13:12:46.059Z,76.00
2022-09-29T13:15:47.471Z,76.00
2022-09-29T13:18:35.044Z,76.10
2022-09-29T13:21:05.074Z,76.00
2022-09-29T13:24:01.856Z,76.00
2022-09-29T13:26:55.975Z,75.90
2022-09-29T13:29:25.757Z,76.00
2022-09-29T13:31:55.730Z,76.20
2022-09-29T13:34:31.221Z,76.30
2022-09-29T13:37:15.056Z,76.40
2022-09-29T13:39:50.740Z,76.30
2022-09-29T13:42:25.968Z,76.20
2022-09-29T13:45:20.812Z,75.90
2022-09-29T13:47:56.635Z,75.90
2022-09-29T13:50:50.427Z,76.00
2022-09-29T13:53:26.785Z,75.90
2022-09-29T13:56:03.146Z,76.00
2022-09-29T13:58:56.632Z,75.40
2022-09-29T14:01:50.877Z,75.60
2022-09-29T14:04:49.865Z,75.80
2022-09-29T14:07:39.392Z,76.20
2022-09-29T14:10:41.122Z,76.10
2022-09-29T14:13:12.864Z,76.40
2022-09-29T14:15:57.623Z,75.20
2022-09-29T14:18:40.501Z,74.90
2022-09-29T14:21:34.342Z,75.30
2022-09-29T14:24:01.419Z,75.40
2022-09-29T14:26:48.381Z,75.60
2022-09-29T14:29:23.005Z,75.80
2022-09-29T14:31:54.250Z,75.10
2022-09-29T14:34:24.437Z,74.80
2022-09-29T14:36:56.657Z,74.70
2022-09-29T14:39:27.312Z,74.40
2022-09-29T14:41:54.690Z,74.80
2022-09-29T14:44:52.629Z,75.50
2022-09-29T14:48:01.030Z,75.50
2022-09-29T14:50:55.747Z,75.80
2022-09-29T14:53:28.565Z,76.00
2022-09-29T14:56:22.903Z,76.00
2022-09-29T14:59:09.269Z,76.10
2022-09-29T15:01:41.242Z,76.10
2022-09-29T15:04:14.209Z,76.30
2022-09-29T15:06:49.376Z,76.20
2022-09-29T15:09:22.495Z,76.10
2022-09-29T15:11:56.478Z,76.10
2022-09-29T15:14:36.912Z,76.50
2022-09-29T15:17:38.746Z,75.80
2022-09-29T15:20:18.234Z,75.70
2022-09-29T15:23:13.542Z,76.30
2022-09-29T15:25:43.178Z,77.20
2022-09-29T15:28:26.032Z,80.30
2022-09-29T15:30:54.696Z,81.90
2022-09-29T15:33:35.759Z,82.70
2022-09-29T15:36:15.520Z,83.70
2022-09-29T15:38:42.596Z,84.30
2022-09-29T15:41:16.575Z,85.00
2022-09-29T15:43:56.195Z,85.30
2022-09-29T15:46:40.249Z,85.30
2022-09-29T15:49:17.174Z,85.50
2022-09-29T15:51:55.942Z,85.70
2022-09-29T15:54:23.729Z,85.90
2022-09-29T15:57:09.651Z,85.90
2022-09-29T15:59:43.976Z,86.00
2022-09-29T16:02:20.112Z,85.90
2022-09-29T16:04:50.280Z,85.90
2022-09-29T16:07:23.228Z,85.80
2022-09-29T16:09:51.537Z,85.80
2022-09-29T16:12:21.037Z,85.60
2022-09-29T16:14:54.078Z,85.40
2022-09-29T16:17:21.451Z,85.40
2022-09-29T16:19:51.266Z,85.20
2022-09-29T16:22:23.689Z,85.10
2022-09-29T16:24:54.660Z,85.00
2022-09-29T16:27:48.628Z,84.90
2022-09-29T16:30:22.180Z,84.70
2022-09-29T16:32:56.300Z,84.70
2022-09-29T16:35:55.416Z,84.60
2022-09-29T16:38:36.092Z,84.40
2022-09-29T16:41:27.725Z,84.20
2022-09-29T16:44:17.524Z,84.00
2022-09-29T16:46:58.313Z,83.90
2022-09-29T16:49:35.441Z,83.70
2022-09-29T16:52:13.276Z,83.60
2022-09-29T16:54:45.540Z,83.50
2022-09-29T16:57:30.640Z,83.30
2022-09-29T17:00:00.284Z,83.20
2022-09-29T17:02:28.415Z,83.00
2022-09-29T17:04:56.746Z,82.90
2022-09-29T17:07:26.700Z,82.80
2022-09-29T17:09:57.905Z,82.50
2022-09-29T17:12:27.593Z,82.40
2022-09-29T17:14:54.667Z,82.30
2022-09-29T17:17:24.497Z,82.20
2022-09-29T17:19:52.901Z,81.90
2022-09-29T17:22:28.946Z,81.80
2022-09-29T17:24:57.022Z,81.70
2022-09-29T17:27:44.124Z,81.90
2022-09-29T17:30:15.818Z,82.00
2022-09-29T17:32:46.517Z,82.00
2022-09-29T17:35:15.234Z,81.80
2022-09-29T17:37:44.211Z,81.60
2022-09-29T17:40:24.946Z,81.70
2022-09-29T17:42:52.188Z,81.70
2022-09-29T17:45:20.927Z,81.60
2022-09-29T17:47:49.746Z,81.60
2022-09-29T17:50:33.471Z,81.70
2022-09-29T17:53:00.601Z,81.60
2022-09-29T17:55:27.941Z,81.50
2022-09-29T17:57:55.160Z,81.30
2022-09-29T18:00:26.375Z,81.40
2022-09-29T18:02:57.051Z,81.40
2022-09-29T18:05:28.410Z,81.30
2022-09-29T18:07:56.975Z,81.20
2022-09-29T18:10:31.085Z,81.10
2022-09-29T18:12:58.311Z,81.10
2022-09-29T18:15:27.020Z,81.00
2022-09-29T18:17:58.435Z,81.00
2022-09-29T18:20:27.883Z,80.90
2022-09-29T18:22:54.955Z,81.10
2022-09-29T18:25:22.015Z,81.00
2022-09-29T18:27:49.466Z,80.90
2022-09-29T18:30:19.490Z,81.00
2022-09-29T18:32:49.184Z,81.50
2022-09-29T18:35:21.835Z,81.60
2022-09-29T18:37:48.891Z,81.50
2022-09-29T18:40:17.173Z,81.40
2022-09-29T18:42:46.780Z,81.40
2022-09-29T18:45:17.727Z,81.20
2022-09-29T18:47:45.252Z,81.20
2022-09-29T18:50:24.587Z,81.20
2022-09-29T18:52:52.104Z,81.20
2022-09-29T18:55:23.857Z,81.00
2022-09-29T18:57:52.358Z,80.90
2022-09-29T19:00:22.099Z,80.80
2022-09-29T19:02:49.825Z,80.90
2022-09-29T19:05:23.525Z,80.80
2022-09-29T19:07:55.709Z,80.70
2022-09-29T19:10:23.062Z,80.60
2022-09-29T19:12:50.789Z,80.50
2022-09-29T19:15:20.445Z,80.40
2022-09-29T19:17:49.561Z,80.30
2022-09-29T19:20:17.940Z,80.10
2022-09-29T19:22:45.904Z,79.90
2022-09-29T19:25:19.141Z,79.80
2022-09-29T19:27:46.768Z,79.60
2022-09-29T19:30:20.188Z,79.40
2022-09-29T19:32:48.462Z,79.20
2022-09-29T19:35:19.225Z,79.10
2022-09-29T19:37:46.949Z,79.00
2022-09-29T19:40:20.968Z,78.90
2022-09-29T19:42:48.553Z,78.80
2022-09-29T19:45:16.184Z,78.70
2022-09-29T19:47:43.403Z,79.00
2022-09-29T19:50:30.244Z,79.20
2022-09-29T19:52:57.545Z,79.10
2022-09-29T19:55:24.689Z,78.90
2022-09-29T19:57:51.930Z,79.00
2022-09-29T20:00:20.906Z,79.40
2022-09-29T20:02:48.154Z,78.90
2022-09-29T20:05:15.706Z,78.90
2022-09-29T20:07:43.985Z,78.70
2022-09-29T20:10:13.390Z,78.80
2022-09-29T20:12:42.179Z,78.90
2022-09-29T20:15:11.767Z,78.70
2022-09-29T20:17:40.825Z,78.70
2022-09-29T20:20:09.981Z,78.70
2022-09-29T20:22:37.722Z,78.70
2022-09-29T20:25:07.306Z,78.70
2022-09-29T20:27:35.680Z,78.70
2022-09-29T20:30:05.171Z,78.70
2022-09-29T20:32:33.464Z,78.60
2022-09-29T20:35:00.942Z,78.60
2022-09-29T20:37:28.987Z,78.50
2022-09-29T20:39:56.207Z,78.40
2022-09-29T20:42:23.310Z,78.30
2022-09-29T20:44:54.722Z,78.20
2022-09-29T20:47:24.736Z,78.10
2022-09-29T20:49:54.838Z,78.10
2022-09-29T20:52:23.700Z,78.00
2022-09-29T20:54:51.062Z,77.90
2022-09-29T20:57:18.099Z,78.00
2022-09-29T20:59:45.162Z,77.90
2022-09-29T21:02:13.370Z,77.80
2022-09-29T21:04:42.278Z,77.70
2022-09-29T21:07:29.471Z,77.80
2022-09-29T21:09:56.546Z,78.00
2022-09-29T21:12:24.163Z,78.10
2022-09-29T21:14:51.208Z,78.10
2022-09-29T21:17:18.279Z,78.00
2022-09-29T21:19:45.315Z,78.00
2022-09-29T21:22:12.372Z,78.10
2022-09-29T21:24:41.355Z,78.10
2022-09-29T21:27:09.196Z,78.10
2022-09-29T21:29:36.327Z,78.00
2022-09-29T21:32:03.875Z,78.00
2022-09-29T21:34:30.901Z,78.00
2022-09-29T21:36:58.015Z,77.90
2022-09-29T21:39:25.064Z,77.90
2022-09-29T21:41:52.172Z,77.80
2022-09-29T21:44:23.260Z,77.80
2022-09-29T21:46:50.908Z,77.70
2022-09-29T21:49:19.396Z,77.70
2022-09-29T21:51:48.794Z,77.70
2022-09-29T21:54:19.175Z,77.70
2022-09-29T21:56:47.525Z,77.50
2022-09-29T21:59:17.661Z,77.50
2022-09-29T22:01:45.431Z,77.50
2022-09-29T22:04:13.448Z,77.40
2022-09-29T22:06:44.471Z,77.30
2022-09-29T22:09:15.370Z,77.30
2022-09-29T22:11:42.449Z,77.20
2022-09-29T22:14:11.353Z,77.10
2022-09-29T22:16:38.456Z,77.30
2022-09-29T22:21:53.979Z,77.20
2022-09-29T22:24:21.310Z,77.10
2022-09-29T22:26:48.534Z,76.90
2022-09-29T22:29:15.718Z,76.90
2022-09-29T22:31:43.053Z,77.00
2022-09-29T22:34:11.101Z,77.00
2022-09-29T22:36:38.483Z,76.90
2022-09-29T22:39:06.612Z,76.90
2022-09-29T22:41:36.483Z,76.80
2022-09-29T22:44:04.018Z,76.80
2022-09-29T22:46:32.196Z,76.60
2022-09-29T22:48:59.913Z,76.60
2022-09-29T22:51:28.366Z,76.70
2022-09-29T22:53:55.433Z,76.70
2022-09-29T22:56:28.232Z,76.60
2022-09-29T22:58:59.358Z,76.50
2022-09-29T23:01:26.998Z,76.70
2022-09-29T23:03:54.294Z,77.10
2022-09-29T23:06:21.382Z,77.30
2022-09-29T23:08:48.418Z,77.50
2022-09-29T23:11:17.647Z,77.80
2022-09-29T23:13:44.926Z,77.90
2022-09-29T23:16:13.899Z,77.80
2022-09-29T23:18:45.557Z,77.80
2022-09-29T23:21:14.842Z,77.60
2022-09-29T23:23:42.281Z,78.10
2022-09-29T23:26:09.370Z,78.00
2022-09-29T23:28:36.610Z,78.10
2022-09-29T23:31:08.094Z,78.20
2022-09-29T23:33:35.418Z,78.30
2022-09-29T23:36:11.110Z,78.40
2022-09-29T23:38:57.748Z,78.50
2022-09-29T23:41:26.982Z,78.60
2022-09-29T23:43:55.579Z,78.50
2022-09-29T23:46:29.950Z,78.80
2022-09-29T23:48:58.379Z,79.00
2022-09-29T23:51:25.711Z,78.90
2022-09-29T23:53:52.775Z,79.20
2022-09-29T23:56:20.971Z,79.50
2022-09-29T23:58:48.052Z,79.50
